createdAt,value
2022-10-05T00:01:33.635Z,11.85
2022-10-05T00:04:23.752Z,11.58
2022-10-05T00:07:16.048Z,12.21
2022-10-05T00:09:56.869Z,12.24
2022-10-05T00:12:25.348Z,12.05
2022-10-05T00:14:57.806Z,12.12
2022-10-05T00:17:29.122Z,11.28
2022-10-05T00:19:56.587Z,11.38
2022-10-05T00:22:35.439Z,11.56
2022-10-05T00:25:13.163Z,11.18
2022-10-05T00:27:40.496Z,11.33
2022-10-05T00:30:18.277Z,11.43
2022-10-05T00:32:46.218Z,11.14
2022-10-05T00:35:15.944Z,11.63
2022-10-05T00:38:39.861Z,11.11
2022-10-05T00:41:09.664Z,11.38
2022-10-05T00:44:20.190Z,12.16
2022-10-05T00:47:08.385Z,11.42
2022-10-05T00:50:02.274Z,11.26
2022-10-05T00:52:45.530Z,11.66
2022-10-05T00:55:31.419Z,11.38
2022-10-05T00:58:17.215Z,12.09
2022-10-05T01:00:57.679Z,12.08
2022-10-05T01:04:01.120Z,11.72
2022-10-05T01:06:33.812Z,11.53
2022-10-05T01:10:23.796Z,11.80
2022-10-05T01:13:15.319Z,12.20
2022-10-05T01:16:04.125Z,11.50
2022-10-05T01:18:54.163Z,11.17
2022-10-05T01:21:26.876Z,11.72
2022-10-05T01:24:18.887Z,11.73
2022-10-05T01:27:43.064Z,11.57
2022-10-05T01:30:15.777Z,11.67
2022-10-05T01:33:22.627Z,11.34
2022-10-05T01:36:20.043Z,11.81
2022-10-05T01:39:27.343Z,11.28
2022-10-05T01:42:30.016Z,11.87
2022-10-05T01:45:39.203Z,11.37
2022-10-05T01:48:47.780Z,11.44
2022-10-05T01:51:37.926Z,11.92
2022-10-05T01:54:22.993Z,11.95
2022-10-05T01:57:14.628Z,11.93
2022-10-05T02:00:04.960Z,11.21
2022-10-05T02:03:09.784Z,10.65
2022-10-05T02:05:53.232Z,11.21
2022-10-05T02:08:43.892Z,11.28
2022-10-05T02:11:14.791Z,11.23
2022-10-05T02:13:49.575Z,10.86
2022-10-05T02:19:53.195Z,11.24
2022-10-05T02:22:49.031Z,11.22
2022-10-05T02:25:35.037Z,11.30
2022-10-05T02:28:43.277Z,11.19
2022-10-05T02:31:20.311Z,11.23
2022-10-05T02:33:48.880Z,11.37
2022-10-05T02:36:26.781Z,11.27
2022-10-05T02:39:41.298Z,11.36
2022-10-05T02:42:23.434Z,11.50
2022-10-05T02:45:36.595Z,11.51
2022-10-05T02:48:34.994Z,11.45
2022-10-05T02:51:08.949Z,11.47
2022-10-05T02:54:00.679Z,11.36
2022-10-05T02:56:51.112Z,11.44
2022-10-05T02:59:40.365Z,11.40
2022-10-05T03:02:31.659Z,11.27
2022-10-05T03:05:35.799Z,11.31
2022-10-05T03:08:27.392Z,11.55
2022-10-05T03:11:25.707Z,11.58
2022-10-05T03:14:25.846Z,11.38
2022-10-05T03:17:13.051Z,11.43
2022-10-05T03:20:17.422Z,11.71
2022-10-05T03:23:04.712Z,11.72
2022-10-05T03:25:59.678Z,12.14
2022-10-05T03:29:01.488Z,12.04
2022-10-05T03:32:00.225Z,12.17
2022-10-05T03:34:48.955Z,12.08
2022-10-05T03:37:42.883Z,11.63
2022-10-05T03:40:24.727Z,11.65
2022-10-05T03:43:07.345Z,12.11
2022-10-05T03:46:18.538Z,11.96
2022-10-05T03:49:14.327Z,11.79
2022-10-05T03:52:23.416Z,12.20
2022-10-05T03:55:46.774Z,12.44
2022-10-05T03:58:42.581Z,12.55
2022-10-05T04:01:16.589Z,12.12
2022-10-05T04:03:59.544Z,12.09
2022-10-05T04:06:35.358Z,12.00
2022-10-05T04:09:21.248Z,12.29
2022-10-05T04:12:15.333Z,12.06
2022-10-05T04:14:50.031Z,11.97
2022-10-05T04:17:31.932Z,12.09
2022-10-05T04:20:22.615Z,11.90
2022-10-05T04:23:10.898Z,12.16
2022-10-05T04:25:54.023Z,12.03
2022-10-05T04:28:42.015Z,12.53
2022-10-05T04:31:17.382Z,11.89
2022-10-05T04:33:57.060Z,12.05
2022-10-05T04:36:41.081Z,12.37
2022-10-05T04:39:38.877Z,11.69
2022-10-05T04:42:27.180Z,12.03
2022-10-05T04:45:37.064Z,12.12
2022-10-05T04:48:12.808Z,12.26
2022-10-05T04:51:19.262Z,12.37
2022-10-05T04:54:03.989Z,12.20
2022-10-05T04:56:41.881Z,12.27
2022-10-05T05:00:13.730Z,12.13
2022-10-05T05:02:43.726Z,12.20
2022-10-05T05:06:16.021Z,12.32
2022-10-05T05:09:33.057Z,11.73
2022-10-05T05:12:27.542Z,12.42
2022-10-05T05:15:18.609Z,12.14
2022-10-05T05:18:17.153Z,12.32
2022-10-05T05:21:01.552Z,12.37
2022-10-05T05:24:19.458Z,11.71
2022-10-05T05:26:59.562Z,12.64
2022-10-05T05:29:54.827Z,12.27
2022-10-05T05:32:58.832Z,11.98
2022-10-05T05:35:41.405Z,12.60
2022-10-05T05:38:11.782Z,11.86
2022-10-05T05:41:12.672Z,12.46
2022-10-05T05:44:13.247Z,12.18
2022-10-05T05:47:09.987Z,12.40
2022-10-05T05:50:07.331Z,12.12
2022-10-05T05:52:46.170Z,12.14
2022-10-05T05:55:29.721Z,11.88
2022-10-05T05:58:09.136Z,12.45
2022-10-05T06:00:54.704Z,12.24
2022-10-05T06:03:38.355Z,12.07
2022-10-05T06:06:18.665Z,12.30
2022-10-05T06:08:58.633Z,12.43
2022-10-05T06:12:01.665Z,12.70
2022-10-05T06:14:44.911Z,12.73
2022-10-05T06:17:27.136Z,13.01
2022-10-05T06:20:02.524Z,13.21
2022-10-05T06:22:45.704Z,13.26
2022-10-05T06:25:23.150Z,13.14
2022-10-05T06:28:12.288Z,13.41
2022-10-05T06:31:20.527Z,13.42
2022-10-05T06:34:15.719Z,13.88
2022-10-05T06:36:50.551Z,13.87
2022-10-05T06:39:47.690Z,14.03
2022-10-05T06:43:10.055Z,14.00
2022-10-05T06:46:23.625Z,14.30
2022-10-05T06:49:25.154Z,14.24
2022-10-05T06:52:26.043Z,13.98
2022-10-05T06:55:26.385Z,14.29
2022-10-05T06:58:41.360Z,14.26
2022-10-05T07:01:35.852Z,14.63
2022-10-05T07:04:37.356Z,14.72
2022-10-05T07:07:27.669Z,14.75
2022-10-05T07:10:19.272Z,15.09
2022-10-05T07:13:33.515Z,14.58
2022-10-05T07:16:23.865Z,15.56
2022-10-05T07:19:38.905Z,15.27
2022-10-05T07:22:34.936Z,15.39
2022-10-05T07:25:08.585Z,15.44
2022-10-05T07:27:50.935Z,15.61
2022-10-05T07:30:19.966Z,15.66
2022-10-05T07:33:12.904Z,16.26
2022-10-05T07:36:42.963Z,15.55
2022-10-05T07:39:58.564Z,16.11
2022-10-05T07:42:52.296Z,16.56
2022-10-05T07:45:45.772Z,16.47
2022-10-05T07:49:00.571Z,17.03
2022-10-05T07:51:46.352Z,16.76
2022-10-05T07:54:44.579Z,16.58
2022-10-05T07:57:38.852Z,17.26
2022-10-05T08:00:18.430Z,16.99
2022-10-05T08:03:06.398Z,17.62
2022-10-05T08:05:40.698Z,17.82
2022-10-05T08:08:12.326Z,17.23
2022-10-05T08:11:27.628Z,18.35
2022-10-05T08:13:55.966Z,18.58
2022-10-05T08:16:30.613Z,18.52
2022-10-05T08:19:15.416Z,18.19
2022-10-05T08:21:50.928Z,19.06
2022-10-05T08:24:49.786Z,19.17
2022-10-05T08:27:54.548Z,19.47
2022-10-05T08:30:21.617Z,20.00
2022-10-05T08:32:59.029Z,19.95
2022-10-05T08:35:46.018Z,20.03
2022-10-05T08:38:18.819Z,20.36
2022-10-05T08:41:25.216Z,20.26
2022-10-05T08:44:42.066Z,20.48
2022-10-05T08:47:37.234Z,20.55
2022-10-05T08:50:24.261Z,20.49
2022-10-05T08:53:46.809Z,21.06
2022-10-05T08:56:35.586Z,20.10
2022-10-05T08:59:26.486Z,20.82
2022-10-05T09:02:03.081Z,21.04
2022-10-05T09:04:58.083Z,20.56
2022-10-05T09:07:59.540Z,21.04
2022-10-05T09:11:12.849Z,21.52
2022-10-05T09:14:04.425Z,21.47
2022-10-05T09:16:51.279Z,21.54
2022-10-05T09:20:10.062Z,21.42
2022-10-05T09:23:32.056Z,21.35
2022-10-05T09:26:43.028Z,21.09
2022-10-05T09:29:40.824Z,21.15
2022-10-05T09:33:15.693Z,21.89
2022-10-05T09:36:27.681Z,21.82
2022-10-05T09:39:08.897Z,21.40
2022-10-05T09:42:17.836Z,21.65
2022-10-05T09:45:29.220Z,21.95
2022-10-05T09:48:47.876Z,21.70
2022-10-05T09:51:53.859Z,22.14
2022-10-05T09:54:38.877Z,22.63
2022-10-05T09:57:50.836Z,22.76
2022-10-05T10:00:41.138Z,22.66
2022-10-05T10:03:08.170Z,22.58
2022-10-05T10:05:39.390Z,22.75
2022-10-05T10:08:40.905Z,22.40
2022-10-05T10:12:04.328Z,22.32
2022-10-05T10:15:01.913Z,22.66
2022-10-05T10:18:07.360Z,22.63
2022-10-05T10:21:06.662Z,22.63
2022-10-05T10:24:15.860Z,23.50
2022-10-05T10:27:16.353Z,22.74
2022-10-05T10:29:43.483Z,23.20
2022-10-05T10:32:48.301Z,23.56
2022-10-05T10:35:22.476Z,23.68
2022-10-05T10:38:34.870Z,23.42
2022-10-05T10:41:14.481Z,23.15
2022-10-05T10:44:32.827Z,23.47
2022-10-05T10:47:35.440Z,23.93
2022-10-05T10:50:28.390Z,23.70
2022-10-05T10:53:38.703Z,23.57
2022-10-05T10:56:48.285Z,23.27
2022-10-05T10:59:54.473Z,23.79
2022-10-05T11:02:37.329Z,23.80
2022-10-05T11:05:56.790Z,23.77
2022-10-05T11:08:53.860Z,23.81
2022-10-05T11:11:51.305Z,23.84
2022-10-05T11:15:07.493Z,24.38
2022-10-05T11:18:17.388Z,24.06
2022-10-05T11:21:26.318Z,24.52
2022-10-05T11:24:39.517Z,24.31
2022-10-05T11:27:50.299Z,24.61
2022-10-05T11:30:54.480Z,24.76
2022-10-05T11:33:48.975Z,24.58
2022-10-05T11:36:40.715Z,24.10
2022-10-05T11:39:44.220Z,24.52
2022-10-05T11:43:02.224Z,24.87
2022-10-05T11:45:50.580Z,24.82
2022-10-05T11:48:38.835Z,24.63
2022-10-05T11:51:14.675Z,24.99
2022-10-05T11:54:09.268Z,25.13
2022-10-05T11:56:43.946Z,24.91
2022-10-05T11:59:41.815Z,25.03
2022-10-05T12:02:14.477Z,24.56
2022-10-05T12:05:02.083Z,25.22
2022-10-05T12:07:36.614Z,24.93
2022-10-05T12:10:36.944Z,24.85
2022-10-05T12:13:53.081Z,25.47
2022-10-05T12:16:32.539Z,25.01
2022-10-05T12:19:18.336Z,25.40
2022-10-05T12:22:04.619Z,25.27
2022-10-05T12:24:38.006Z,25.37
2022-10-05T12:27:15.541Z,25.59
2022-10-05T12:30:25.281Z,25.20
2022-10-05T12:33:21.463Z,25.71
2022-10-05T12:36:05.730Z,25.64
2022-10-05T12:38:57.781Z,25.90
2022-10-05T12:41:55.125Z,25.95
2022-10-05T12:44:52.726Z,25.83
2022-10-05T12:47:39.876Z,25.87
2022-10-05T12:50:46.396Z,25.81
2022-10-05T12:53:37.077Z,25.92
2022-10-05T12:56:21.766Z,25.84
2022-10-05T12:59:07.704Z,26.04
2022-10-05T13:01:43.294Z,26.28
2022-10-05T13:04:47.141Z,26.19
2022-10-05T13:07:47.663Z,25.55
2022-10-05T13:10:50.517Z,25.61
2022-10-05T13:14:07.758Z,25.69
2022-10-05T13:16:39.642Z,26.12
2022-10-05T13:19:40.626Z,26.03
2022-10-05T13:22:34.351Z,25.90
2022-10-05T13:25:17.624Z,25.76
2022-10-05T13:28:15.575Z,26.32
2022-10-05T13:31:01.180Z,25.92
2022-10-05T13:33:53.129Z,26.25
2022-10-05T13:36:42.471Z,26.25
2022-10-05T13:40:35.278Z,26.19
2022-10-05T13:43:50.359Z,26.12
2022-10-05T13:46:46.428Z,26.56
2022-10-05T13:49:35.691Z,26.31
2022-10-05T13:52:29.403Z,26.08
2022-10-05T13:55:12.219Z,26.31
2022-10-05T13:58:13.974Z,26.34
2022-10-05T14:01:02.171Z,26.69
2022-10-05T14:03:35.187Z,26.18
2022-10-05T14:06:26.378Z,26.53
2022-10-05T14:08:53.995Z,26.62
2022-10-05T14:11:53.890Z,26.61
2022-10-05T14:14:29.564Z,26.00
2022-10-05T14:16:59.855Z,26.29
2022-10-05T14:19:45.818Z,26.48
2022-10-05T14:22:24.326Z,26.27
2022-10-05T14:25:01.934Z,26.58
2022-10-05T14:27:51.451Z,26.03
2022-10-05T14:30:25.830Z,26.16
2022-10-05T14:33:03.381Z,26.24
2022-10-05T14:35:45.552Z,26.21
2022-10-05T14:38:52.403Z,26.35
2022-10-05T14:41:28.108Z,25.95
2022-10-05T14:44:18.191Z,26.43
2022-10-05T14:46:55.170Z,26.33
2022-10-05T14:49:33.170Z,26.50
2022-10-05T14:52:00.293Z,25.84
2022-10-05T14:54:57.565Z,25.70
2022-10-05T14:57:32.060Z,25.67
2022-10-05T15:00:13.534Z,25.53
2022-10-05T15:02:52.379Z,25.86
2022-10-05T15:05:36.001Z,25.78
2022-10-05T15:08:19.499Z,25.71
2022-10-05T15:11:00.340Z,25.64
2022-10-05T15:13:36.302Z,25.58
2022-10-05T15:16:12.943Z,25.64
2022-10-05T15:18:40.193Z,25.64
2022-10-05T15:21:45.234Z,25.90
2022-10-05T15:24:21.221Z,25.51
2022-10-05T15:26:52.961Z,25.43
2022-10-05T15:29:51.907Z,25.25
2022-10-05T15:32:31.050Z,25.40
2022-10-05T15:35:33.192Z,25.08
2022-10-05T15:38:25.794Z,25.20
2022-10-05T15:41:08.376Z,25.10
2022-10-05T15:43:46.917Z,25.27
2022-10-05T15:46:34.501Z,25.27
2022-10-05T15:49:51.761Z,25.26
2022-10-05T15:52:40.750Z,25.50
2022-10-05T15:55:41.204Z,25.45
2022-10-05T15:58:46.923Z,25.51
2022-10-05T16:01:47.629Z,25.37
2022-10-05T16:04:40.908Z,25.13
2022-10-05T16:07:43.341Z,25.25
2022-10-05T16:10:21.764Z,25.00
2022-10-05T16:13:06.596Z,25.12
2022-10-05T16:16:12.155Z,24.84
2022-10-05T16:18:38.966Z,24.64
2022-10-05T16:21:39.094Z,24.55
2022-10-05T16:24:46.054Z,24.48
2022-10-05T16:27:52.667Z,24.34
2022-10-05T16:30:23.168Z,24.06
2022-10-05T16:33:22.487Z,24.08
2022-10-05T16:36:53.177Z,23.91
2022-10-05T16:39:48.559Z,23.81
2022-10-05T16:42:27.473Z,23.23
2022-10-05T16:45:29.486Z,23.32
2022-10-05T16:48:13.490Z,22.83
2022-10-05T16:51:24.139Z,22.58
2022-10-05T16:54:20.203Z,21.84
2022-10-05T16:57:11.115Z,21.30
2022-10-05T17:00:23.567Z,21.65
2022-10-05T17:03:02.332Z,22.32
2022-10-05T17:06:20.357Z,22.24
2022-10-05T17:09:41.146Z,22.04
2022-10-05T17:13:16.386Z,21.86
2022-10-05T17:16:10.556Z,21.10
2022-10-05T17:19:15.237Z,21.52
2022-10-05T17:22:10.325Z,21.22
2022-10-05T17:25:18.335Z,21.33
2022-10-05T17:27:54.261Z,21.31
2022-10-05T17:30:27.624Z,21.43
2022-10-05T17:33:21.236Z,21.18
2022-10-05T17:36:17.078Z,21.28
2022-10-05T17:39:12.174Z,21.35
2022-10-05T17:41:39.352Z,21.33
2022-10-05T17:44:21.301Z,21.42
2022-10-05T17:46:56.906Z,21.36
2022-10-05T17:50:14.929Z,21.16
2022-10-05T17:53:02.766Z,21.26
2022-10-05T17:56:03.310Z,21.08
2022-10-05T17:58:30.096Z,21.21
2022-10-05T18:00:56.965Z,21.02
2022-10-05T18:03:42.929Z,20.87
2022-10-05T18:06:34.206Z,20.84
2022-10-05T18:09:24.641Z,20.74
2022-10-05T18:12:24.447Z,20.46
2022-10-05T18:15:05.804Z,20.49
2022-10-05T18:17:51.302Z,20.71
2022-10-05T18:20:24.580Z,20.40
2022-10-05T18:23:13.434Z,20.15
2022-10-05T18:25:51.706Z,20.23
2022-10-05T18:28:49.416Z,20.08
2022-10-05T18:31:35.751Z,19.70
2022-10-05T18:34:28.659Z,19.72
2022-10-05T18:37:31.669Z,19.87
2022-10-05T18:40:34.339Z,19.94
2022-10-05T18:43:24.864Z,19.88
2022-10-05T18:46:21.941Z,20.09
2022-10-05T18:49:27.077Z,20.01
2022-10-05T18:52:20.621Z,19.79
2022-10-05T18:55:34.530Z,20.10
2022-10-05T18:58:38.586Z,19.34
2022-10-05T19:01:50.513Z,19.22
2022-10-05T19:04:50.915Z,19.39
2022-10-05T19:07:23.923Z,19.21
2022-10-05T19:10:34.461Z,19.42
2022-10-05T19:13:38.932Z,19.23
2022-10-05T19:16:38.373Z,19.49
2022-10-05T19:20:01.768Z,19.59
2022-10-05T19:23:10.110Z,19.50
2022-10-05T19:25:50.354Z,19.54
2022-10-05T19:28:49.366Z,18.94
2022-10-05T19:31:37.555Z,19.12
2022-10-05T19:34:24.925Z,19.56
2022-10-05T19:37:23.310Z,19.59
2022-10-05T19:40:21.653Z,19.57
2022-10-05T19:43:23.255Z,19.00
2022-10-05T19:46:22.669Z,18.90
2022-10-05T19:48:54.193Z,19.24
2022-10-05T19:51:25.432Z,19.09
2022-10-05T19:53:55.900Z,19.57
2022-10-05T19:56:45.614Z,19.58
2022-10-05T19:59:18.880Z,19.53
2022-10-05T20:01:56.297Z,18.56
2022-10-05T20:04:40.773Z,19.67
2022-10-05T20:07:17.521Z,18.87
2022-10-05T20:10:18.508Z,18.39
2022-10-05T20:12:57.465Z,18.99
2022-10-05T20:15:54.955Z,19.07
2022-10-05T20:19:08.108Z,19.26
2022-10-05T20:21:50.632Z,18.82
2022-10-05T20:24:25.630Z,18.12
2022-10-05T20:27:06.510Z,18.72
2022-10-05T20:29:39.354Z,18.75
2022-10-05T20:32:17.948Z,18.57
2022-10-05T20:34:47.738Z,17.99
2022-10-05T20:37:18.102Z,18.55
2022-10-05T20:39:45.511Z,18.62
2022-10-05T20:42:13.515Z,18.25
2022-10-05T20:44:42.405Z,18.27
2022-10-05T20:47:10.395Z,18.41
2022-10-05T20:49:40.967Z,18.39
2022-10-05T20:52:10.894Z,18.60
2022-10-05T20:54:39.273Z,18.59
2022-10-05T20:57:07.189Z,18.95
2022-10-05T20:59:35.085Z,18.93
2022-10-05T21:02:04.051Z,18.79
2022-10-05T21:04:40.029Z,18.00
2022-10-05T21:07:08.683Z,18.12
2022-10-05T21:09:38.240Z,18.76
2022-10-05T21:12:05.210Z,18.41
2022-10-05T21:14:34.512Z,18.24
2022-10-05T21:17:02.257Z,18.37
2022-10-05T21:19:30.306Z,18.06
2022-10-05T21:22:02.444Z,18.60
2022-10-05T21:24:29.374Z,18.66
2022-10-05T21:26:57.722Z,18.60
2022-10-05T21:29:25.631Z,18.87
2022-10-05T21:31:52.811Z,18.93
2022-10-05T21:34:19.916Z,18.42
2022-10-05T21:36:46.825Z,18.21
2022-10-05T21:39:13.796Z,18.70
2022-10-05T21:41:40.713Z,18.32
2022-10-05T21:44:07.939Z,18.60
2022-10-05T21:46:38.737Z,17.82
2022-10-05T21:49:07.441Z,17.74
2022-10-05T21:51:35.763Z,18.09
2022-10-05T21:54:15.596Z,18.50
2022-10-05T21:56:47.967Z,18.46
2022-10-05T21:59:19.106Z,18.16
2022-10-05T22:01:46.165Z,17.82
2022-10-05T22:04:13.689Z,17.83
2022-10-05T22:06:40.867Z,17.98
2022-10-05T22:09:07.900Z,18.04
2022-10-05T22:11:35.014Z,17.88
2022-10-05T22:14:02.778Z,17.74
2022-10-05T22:16:34.574Z,17.67
2022-10-05T22:19:10.823Z,17.47
2022-10-05T22:21:41.830Z,17.23
2022-10-05T22:24:13.156Z,17.65
2022-10-05T22:26:44.775Z,17.32
2022-10-05T22:29:12.656Z,17.79
2022-10-05T22:31:39.991Z,17.44
2022-10-05T22:34:06.950Z,17.81
2022-10-05T22:36:35.621Z,17.53
2022-10-05T22:39:02.848Z,17.61
2022-10-05T22:41:29.816Z,17.39
2022-10-05T22:43:56.698Z,17.51
2022-10-05T22:46:24.125Z,17.86
2022-10-05T22:48:51.265Z,17.58
2022-10-05T22:51:18.439Z,17.69
2022-10-05T22:53:45.495Z,17.73
2022-10-05T22:56:13.850Z,17.62
2022-10-05T22:58:42.950Z,17.72
2022-10-05T23:01:14.567Z,17.81
2022-10-05T23:03:42.397Z,17.73
2022-10-05T23:06:14.035Z,17.58
2022-10-05T23:08:43.739Z,17.59
2022-10-05T23:11:21.930Z,17.18
2022-10-05T23:13:50.708Z,17.14
2022-10-05T23:16:21.393Z,17.04
2022-10-05T23:18:50.806Z,17.50
2022-10-05T23:21:20.150Z,17.42
2022-10-05T23:23:50.908Z,17.80
2022-10-05T23:26:21.740Z,17.97
2022-10-05T23:28:50.059Z,17.74
2022-10-05T23:31:21.040Z,17.00
2022-10-05T23:33:48.443Z,16.94
2022-10-05T23:36:19.372Z,16.83
2022-10-05T23:38:46.923Z,16.83
2022-10-05T23:41:14.398Z,17.07
2022-10-05T23:43:41.872Z,17.27
2022-10-05T23:46:09.713Z,16.87
2022-10-05T23:48:38.031Z,16.72
2022-10-05T23:51:11.844Z,16.35
2022-10-05T23:53:40.022Z,16.48
2022-10-05T23:56:07.513Z,16.71
2022-10-05T23:58:34.388Z,16.77
